createdAt,value
2022-10-14T00:01:30.754Z,29.23
2022-10-14T00:11:34.537Z,22.93
2022-10-14T00:22:00.066Z,26.20
2022-10-14T00:32:07.691Z,24.83
2022-10-14T00:42:18.301Z,26.50
2022-10-14T00:52:22.577Z,30.20
2022-10-14T01:02:29.783Z,25.37
2022-10-14T01:12:50.866Z,27.33
2022-10-14T01:23:06.948Z,29.80
2022-10-14T01:33:17.057Z,30.07
2022-10-14T01:43:27.962Z,26.50
2022-10-14T01:53:34.495Z,26.27
2022-10-14T02:03:42.122Z,31.23
2022-10-14T02:13:55.606Z,30.80
2022-10-14T02:24:08.934Z,28.23
2022-10-14T02:34:17.178Z,30.37
2022-10-14T02:44:25.631Z,30.57
2022-10-14T02:54:27.817Z,26.53
2022-10-14T03:04:37.180Z,28.97
2022-10-14T03:14:39.967Z,31.70
2022-10-14T03:24:45.745Z,33.87
2022-10-14T03:35:12.796Z,26.43
2022-10-14T03:45:19.279Z,27.87
2022-10-14T03:55:23.337Z,31.23
2022-10-14T04:05:34.355Z,30.20
2022-10-14T04:15:46.460Z,31.90
2022-10-14T04:25:56.153Z,31.23
2022-10-14T04:36:06.097Z,33.13
2022-10-14T04:46:14.361Z,29.63
2022-10-14T04:56:21.278Z,35.63
2022-10-14T05:06:35.238Z,35.07
2022-10-14T05:16:40.274Z,33.30
2022-10-14T05:26:47.088Z,32.83
2022-10-14T05:36:54.706Z,32.77
2022-10-14T05:47:02.013Z,32.33
2022-10-14T05:57:09.500Z,34.70
2022-10-14T06:07:14.031Z,34.70
2022-10-14T06:17:20.946Z,35.33
2022-10-14T06:27:28.201Z,32.67
2022-10-14T06:37:31.456Z,31.50
2022-10-14T06:47:36.076Z,33.77
2022-10-14T06:57:45.907Z,29.53
2022-10-14T07:07:49.260Z,31.47
2022-10-14T07:17:53.707Z,31.50
2022-10-14T07:27:58.353Z,31.23
2022-10-14T07:38:00.917Z,29.43
2022-10-14T07:48:02.962Z,31.13
2022-10-14T07:58:11.823Z,27.27
2022-10-14T08:08:25.754Z,29.23
2022-10-14T08:18:28.748Z,31.03
2022-10-14T08:28:33.458Z,27.43
2022-10-14T08:38:38.217Z,29.90
2022-10-14T08:48:42.618Z,25.93
2022-10-14T08:58:50.704Z,25.67
2022-10-14T09:08:58.762Z,25.43
2022-10-14T09:19:05.498Z,25.98
2022-10-14T09:29:27.226Z,30.00
2022-10-14T09:39:38.333Z,24.00
2022-10-14T09:49:43.074Z,24.30
2022-10-14T09:59:55.879Z,24.52
2022-10-14T10:10:05.776Z,26.58
2022-10-14T10:20:36.879Z,25.08
2022-10-14T10:31:00.284Z,24.25
2022-10-14T10:41:20.659Z,25.77
2022-10-14T10:51:29.512Z,25.00
2022-10-14T11:02:01.135Z,24.75
2022-10-14T11:12:24.039Z,24.40
2022-10-14T11:22:46.258Z,29.25
2022-10-14T11:33:13.126Z,23.27
2022-10-14T11:43:42.212Z,27.52
2022-10-14T11:54:01.416Z,23.92
2022-10-14T12:04:34.372Z,26.25
2022-10-14T12:14:49.663Z,23.90
2022-10-14T12:24:56.566Z,23.38
2022-10-14T12:35:01.973Z,27.30
2022-10-14T12:45:18.657Z,23.65
2022-10-14T12:55:23.242Z,29.50
2022-10-14T13:05:51.605Z,24.33
2022-10-14T13:16:00.635Z,31.95
2022-10-14T13:26:18.797Z,28.33
2022-10-14T13:37:00.594Z,24.90
2022-10-14T13:47:04.989Z,27.05
2022-10-14T14:18:01.351Z,25.98
2022-10-14T14:28:08.301Z,26.73
2022-10-14T14:38:31.541Z,30.85
2022-10-14T14:48:34.490Z,22.33
2022-10-14T14:58:38.987Z,23.27
2022-10-14T15:08:55.121Z,21.45
2022-10-14T15:19:24.586Z,24.05
2022-10-14T15:29:28.913Z,25.42
2022-10-14T15:39:36.888Z,23.98
2022-10-14T15:49:41.875Z,21.92
2022-10-14T15:59:48.886Z,26.40
2022-10-14T16:09:53.953Z,28.27
2022-10-14T16:20:02.920Z,25.67
2022-10-14T16:30:12.224Z,28.67
2022-10-14T16:40:14.851Z,29.38
2022-10-14T16:50:17.068Z,40.05
2022-10-14T17:00:20.352Z,31.63
2022-10-14T17:10:22.706Z,32.80
2022-10-14T17:20:27.553Z,35.35
2022-10-14T17:30:30.821Z,33.00
2022-10-14T17:40:33.979Z,31.55
2022-10-14T17:50:38.279Z,32.83
2022-10-14T18:00:45.535Z,38.97
2022-10-14T18:10:49.819Z,44.20
2022-10-14T18:20:57.236Z,32.08
2022-10-14T18:31:16.225Z,35.45
2022-10-14T18:41:18.435Z,37.63
2022-10-14T18:51:27.083Z,41.50
2022-10-14T19:01:30.242Z,32.47
2022-10-14T19:11:34.350Z,41.17
2022-10-14T19:21:39.030Z,44.63
2022-10-14T19:31:45.301Z,42.65
2022-10-14T19:41:47.629Z,42.40
2022-10-14T19:51:52.176Z,42.93
2022-10-14T20:01:56.500Z,43.43
2022-10-14T20:11:59.582Z,40.70
2022-10-14T20:22:09.087Z,42.20
2022-10-14T20:32:17.083Z,40.60
2022-10-14T20:42:23.868Z,43.60
2022-10-14T20:52:29.214Z,44.53
2022-10-14T21:02:34.120Z,49.57
2022-10-14T21:12:36.956Z,51.70
2022-10-14T21:22:42.042Z,50.90
2022-10-14T21:32:44.136Z,50.80
2022-10-14T21:42:48.395Z,54.37
2022-10-14T21:52:55.487Z,54.33
2022-10-14T22:02:58.737Z,51.58
2022-10-14T22:13:10.638Z,54.07
2022-10-14T22:23:12.637Z,50.70
2022-10-14T22:33:19.273Z,54.10
2022-10-14T22:43:21.411Z,58.77
2022-10-14T22:53:28.524Z,75.77
2022-10-14T23:03:31.574Z,54.97
2022-10-14T23:13:38.936Z,53.57
2022-10-14T23:23:44.133Z,48.50
2022-10-14T23:33:52.661Z,53.70
2022-10-14T23:43:56.426Z,55.87
2022-10-14T23:54:02.425Z,56.67
